sensor_id;sensor_type;location;lat;lon;timestamp;P1;durP1;ratioP1;P2;durP2;ratioP2
16731;SDS011;8484;50.904;9.192;2023-03-01T00:00:13;8.90;;;7.97;;
16731;SDS011;8484;50.904;9.192;2023-03-01T00:02:40;7.70;;;6.90;;
16731;SDS011;8484;50.904;9.192;2023-03-01T00:05:07;9.13;;;7.17;;
16731;SDS011;8484;50.904;9.192;2023-03-01T00:07:34;8.67;;;7.20;;
16731;SDS011;8484;50.904;9.192;2023-03-01T00:10:01;7.30;;;6.60;;
16731;SDS011;8484;50.904;9.192;2023-03-01T00:12:28;7.13;;;6.37;;
16731;SDS011;8484;50.904;9.192;2023-03-01T00:14:56;8.43;;;6.77;;
16731;SDS011;8484;50.904;9.192;2023-03-01T00:17:23;7.27;;;6.57;;
16731;SDS011;8484;50.904;9.192;2023-03-01T00:19:50;8.70;;;7.00;;
16731;SDS011;8484;50.904;9.192;2023-03-01T00:22:17;7.83;;;7.03;;
16731;SDS011;8484;50.904;9.192;2023-03-01T00:24:44;7.80;;;7.00;;
16731;SDS011;8484;50.904;9.192;2023-03-01T00:27:10;8.17;;;7.37;;
16731;SDS011;8484;50.904;9.192;2023-03-01T00:29:37;7.93;;;7.13;;
16731;SDS011;8484;50.904;9.192;2023-03-01T00:32:06;7.67;;;6.87;;
16731;SDS011;8484;50.904;9.192;2023-03-01T00:34:32;9.30;;;6.90;;
16731;SDS011;8484;50.904;9.192;2023-03-01T00:36:59;8.10;;;7.30;;
16731;SDS011;8484;50.904;9.192;2023-03-01T00:39:30;8.30;;;7.40;;
16731;SDS011;8484;50.904;9.192;2023-03-01T00:41:59;7.93;;;7.13;;
16731;SDS011;8484;50.904;9.192;2023-03-01T00:44:26;7.97;;;7.17;;
16731;SDS011;8484;50.904;9.192;2023-03-01T00:46:53;7.80;;;7.00;;
16731;SDS011;8484;50.904;9.192;2023-03-01T00:49:21;8.17;;;7.37;;
16731;SDS011;8484;50.904;9.192;2023-03-01T00:51:52;7.43;;;6.67;;
16731;SDS011;8484;50.904;9.192;2023-03-01T00:54:19;8.23;;;6.23;;
16731;SDS011;8484;50.904;9.192;2023-03-01T00:56:46;7.20;;;6.50;;
16731;SDS011;8484;50.904;9.192;2023-03-01T00:59:13;7.57;;;6.73;;
16731;SDS011;8484;50.904;9.192;2023-03-01T01:01:40;7.97;;;7.17;;
16731;SDS011;8484;50.904;9.192;2023-03-01T01:04:07;7.93;;;6.70;;
16731;SDS011;8484;50.904;9.192;2023-03-01T01:06:37;7.90;;;7.00;;
16731;SDS011;8484;50.904;9.192;2023-03-01T01:09:08;8.20;;;6.67;;
16731;SDS011;8484;50.904;9.192;2023-03-01T01:11:42;7.47;;;6.67;;
16731;SDS011;8484;50.904;9.192;2023-03-01T01:14:09;7.47;;;6.40;;
16731;SDS011;8484;50.904;9.192;2023-03-01T01:16:36;7.50;;;6.70;;
16731;SDS011;8484;50.904;9.192;2023-03-01T01:19:03;7.80;;;7.00;;
16731;SDS011;8484;50.904;9.192;2023-03-01T01:21:30;7.03;;;6.33;;
16731;SDS011;8484;50.904;9.192;2023-03-01T01:23:59;7.50;;;6.00;;
16731;SDS011;8484;50.904;9.192;2023-03-01T01:26:27;9.10;;;6.57;;
16731;SDS011;8484;50.904;9.192;2023-03-01T01:28:55;7.93;;;6.53;;
16731;SDS011;8484;50.904;9.192;2023-03-01T01:31:24;8.90;;;7.27;;
16731;SDS011;8484;50.904;9.192;2023-03-01T01:33:52;8.27;;;6.83;;
16731;SDS011;8484;50.904;9.192;2023-03-01T01:36:19;8.77;;;6.57;;
16731;SDS011;8484;50.904;9.192;2023-03-01T01:38:46;8.23;;;7.30;;
16731;SDS011;8484;50.904;9.192;2023-03-01T01:41:14;8.40;;;7.00;;
16731;SDS011;8484;50.904;9.192;2023-03-01T01:43:42;9.87;;;7.20;;
16731;SDS011;8484;50.904;9.192;2023-03-01T01:46:14;7.87;;;6.80;;
16731;SDS011;8484;50.904;9.192;2023-03-01T01:48:48;10.53;;;7.50;;
16731;SDS011;8484;50.904;9.192;2023-03-01T01:51:19;9.73;;;7.37;;
16731;SDS011;8484;50.904;9.192;2023-03-01T01:53:51;7.73;;;6.93;;
16731;SDS011;8484;50.904;9.192;2023-03-01T01:56:24;8.60;;;6.70;;
16731;SDS011;8484;50.904;9.192;2023-03-01T01:58:52;7.50;;;6.80;;
16731;SDS011;8484;50.904;9.192;2023-03-01T02:01:20;8.53;;;7.13;;
16731;SDS011;8484;50.904;9.192;2023-03-01T02:03:47;8.03;;;7.23;;
16731;SDS011;8484;50.904;9.192;2023-03-01T02:06:17;7.73;;;6.93;;
16731;SDS011;8484;50.904;9.192;2023-03-01T02:08:48;7.87;;;6.93;;
16731;SDS011;8484;50.904;9.192;2023-03-01T02:11:16;7.97;;;6.97;;
16731;SDS011;8484;50.904;9.192;2023-03-01T02:13:46;8.23;;;7.10;;
16731;SDS011;8484;50.904;9.192;2023-03-01T02:16:14;9.53;;;7.63;;
16731;SDS011;8484;50.904;9.192;2023-03-01T02:18:42;9.00;;;7.60;;
16731;SDS011;8484;50.904;9.192;2023-03-01T02:21:23;11.03;;;7.97;;
16731;SDS011;8484;50.904;9.192;2023-03-01T02:23:56;7.80;;;7.00;;
16731;SDS011;8484;50.904;9.192;2023-03-01T02:26:32;9.27;;;7.67;;
16731;SDS011;8484;50.904;9.192;2023-03-01T02:29:05;8.90;;;7.83;;
16731;SDS011;8484;50.904;9.192;2023-03-01T02:31:32;8.30;;;7.50;;
16731;SDS011;8484;50.904;9.192;2023-03-01T02:34:10;7.93;;;7.17;;
16731;SDS011;8484;50.904;9.192;2023-03-01T02:36:39;8.27;;;7.27;;
16731;SDS011;8484;50.904;9.192;2023-03-01T02:39:10;8.33;;;7.53;;
16731;SDS011;8484;50.904;9.192;2023-03-01T02:41:44;8.50;;;7.60;;
16731;SDS011;8484;50.904;9.192;2023-03-01T02:44:15;8.17;;;7.33;;
16731;SDS011;8484;50.904;9.192;2023-03-01T02:46:43;9.10;;;7.63;;
16731;SDS011;8484;50.904;9.192;2023-03-01T02:49:18;8.63;;;7.70;;
16731;SDS011;8484;50.904;9.192;2023-03-01T02:51:52;8.13;;;7.33;;
16731;SDS011;8484;50.904;9.192;2023-03-01T02:54:28;7.90;;;7.10;;
16731;SDS011;8484;50.904;9.192;2023-03-01T02:56:59;8.67;;;7.83;;
16731;SDS011;8484;50.904;9.192;2023-03-01T02:59:29;8.53;;;7.60;;
16731;SDS011;8484;50.904;9.192;2023-03-01T03:02:00;9.67;;;7.33;;
16731;SDS011;8484;50.904;9.192;2023-03-01T03:04:27;8.80;;;7.63;;
16731;SDS011;8484;50.904;9.192;2023-03-01T03:06:54;7.80;;;6.90;;
16731;SDS011;8484;50.904;9.192;2023-03-01T03:09:21;8.77;;;7.83;;
16731;SDS011;8484;50.904;9.192;2023-03-01T03:11:48;8.33;;;7.20;;
16731;SDS011;8484;50.904;9.192;2023-03-01T03:14:15;7.60;;;6.90;;
16731;SDS011;8484;50.904;9.192;2023-03-01T03:16:44;7.97;;;6.70;;
16731;SDS011;8484;50.904;9.192;2023-03-01T03:19:13;9.80;;;7.40;;
16731;SDS011;8484;50.904;9.192;2023-03-01T03:21:41;10.13;;;7.37;;
16731;SDS011;8484;50.904;9.192;2023-03-01T03:24:09;7.50;;;6.77;;
16731;SDS011;8484;50.904;9.192;2023-03-01T03:26:36;7.63;;;6.87;;
16731;SDS011;8484;50.904;9.192;2023-03-01T03:29:03;7.87;;;7.03;;
16731;SDS011;8484;50.904;9.192;2023-03-01T03:31:30;8.73;;;7.03;;
16731;SDS011;8484;50.904;9.192;2023-03-01T03:33:58;7.83;;;7.03;;
16731;SDS011;8484;50.904;9.192;2023-03-01T03:36:25;7.50;;;6.70;;
16731;SDS011;8484;50.904;9.192;2023-03-01T03:38:52;8.30;;;6.97;;
16731;SDS011;8484;50.904;9.192;2023-03-01T03:41:18;7.60;;;6.87;;
16731;SDS011;8484;50.904;9.192;2023-03-01T03:43:45;8.20;;;7.40;;
16731;SDS011;8484;50.904;9.192;2023-03-01T03:46:13;9.63;;;7.53;;
16731;SDS011;8484;50.904;9.192;2023-03-01T03:48:42;10.87;;;7.90;;
16731;SDS011;8484;50.904;9.192;2023-03-01T03:51:11;9.33;;;7.77;;
16731;SDS011;8484;50.904;9.192;2023-03-01T03:53:39;8.50;;;7.20;;
16731;SDS011;8484;50.904;9.192;2023-03-01T03:56:07;10.80;;;8.13;;
16731;SDS011;8484;50.904;9.192;2023-03-01T03:58:34;8.97;;;7.43;;
16731;SDS011;8484;50.904;9.192;2023-03-01T04:01:01;7.43;;;6.70;;
16731;SDS011;8484;50.904;9.192;2023-03-01T04:03:29;10.00;;;7.47;;
16731;SDS011;8484;50.904;9.192;2023-03-01T04:05:58;8.60;;;7.70;;
16731;SDS011;8484;50.904;9.192;2023-03-01T04:08:27;9.93;;;7.77;;
16731;SDS011;8484;50.904;9.192;2023-03-01T04:10:57;8.23;;;6.90;;
16731;SDS011;8484;50.904;9.192;2023-03-01T04:13:26;8.50;;;7.50;;
16731;SDS011;8484;50.904;9.192;2023-03-01T04:15:53;8.23;;;7.40;;
16731;SDS011;8484;50.904;9.192;2023-03-01T04:18:22;8.50;;;7.50;;
16731;SDS011;8484;50.904;9.192;2023-03-01T04:20:50;7.83;;;7.03;;
16731;SDS011;8484;50.904;9.192;2023-03-01T04:23:20;10.30;;;7.67;;
16731;SDS011;8484;50.904;9.192;2023-03-01T04:25:49;7.40;;;6.70;;
16731;SDS011;8484;50.904;9.192;2023-03-01T04:28:22;8.03;;;7.23;;
16731;SDS011;8484;50.904;9.192;2023-03-01T04:30:50;8.10;;;7.20;;
16731;SDS011;8484;50.904;9.192;2023-03-01T04:33:17;7.97;;;7.17;;
16731;SDS011;8484;50.904;9.192;2023-03-01T04:35:44;8.50;;;7.40;;
16731;SDS011;8484;50.904;9.192;2023-03-01T04:38:14;7.90;;;7.10;;
16731;SDS011;8484;50.904;9.192;2023-03-01T04:40:41;11.57;;;7.67;;
16731;SDS011;8484;50.904;9.192;2023-03-01T04:43:10;9.90;;;7.47;;
16731;SDS011;8484;50.904;9.192;2023-03-01T04:45:39;9.87;;;7.47;;
16731;SDS011;8484;50.904;9.192;2023-03-01T04:48:06;9.87;;;7.43;;
16731;SDS011;8484;50.904;9.192;2023-03-01T04:50:33;8.10;;;7.30;;
16731;SDS011;8484;50.904;9.192;2023-03-01T04:53:01;7.60;;;6.80;;
16731;SDS011;8484;50.904;9.192;2023-03-01T04:55:28;8.07;;;7.03;;
16731;SDS011;8484;50.904;9.192;2023-03-01T04:57:55;8.33;;;7.03;;
16731;SDS011;8484;50.904;9.192;2023-03-01T05:00:23;8.00;;;6.83;;
16731;SDS011;8484;50.904;9.192;2023-03-01T05:02:51;7.40;;;6.67;;
16731;SDS011;8484;50.904;9.192;2023-03-01T05:05:23;7.77;;;6.60;;
16731;SDS011;8484;50.904;9.192;2023-03-01T05:07:55;8.73;;;7.10;;
16731;SDS011;8484;50.904;9.192;2023-03-01T05:10:22;8.97;;;6.60;;
16731;SDS011;8484;50.904;9.192;2023-03-01T05:12:50;8.87;;;6.97;;
16731;SDS011;8484;50.904;9.192;2023-03-01T05:15:19;7.40;;;6.60;;
16731;SDS011;8484;50.904;9.192;2023-03-01T05:17:51;7.53;;;6.73;;
16731;SDS011;8484;50.904;9.192;2023-03-01T05:20:19;7.67;;;6.90;;
16731;SDS011;8484;50.904;9.192;2023-03-01T05:22:48;7.57;;;6.80;;
16731;SDS011;8484;50.904;9.192;2023-03-01T05:25:15;7.97;;;7.17;;
16731;SDS011;8484;50.904;9.192;2023-03-01T05:27:42;9.80;;;7.33;;
16731;SDS011;8484;50.904;9.192;2023-03-01T05:30:10;7.33;;;6.63;;
16731;SDS011;8484;50.904;9.192;2023-03-01T05:32:41;7.93;;;5.33;;
16731;SDS011;8484;50.904;9.192;2023-03-01T05:35:12;8.00;;;6.80;;
16731;SDS011;8484;50.904;9.192;2023-03-01T05:37:40;7.63;;;6.87;;
16731;SDS011;8484;50.904;9.192;2023-03-01T05:40:09;7.70;;;6.37;;
16731;SDS011;8484;50.904;9.192;2023-03-01T05:42:43;7.70;;;6.90;;
16731;SDS011;8484;50.904;9.192;2023-03-01T05:45:12;7.20;;;6.50;;
16731;SDS011;8484;50.904;9.192;2023-03-01T05:47:40;7.80;;;7.00;;
16731;SDS011;8484;50.904;9.192;2023-03-01T05:50:11;7.40;;;6.70;;
16731;SDS011;8484;50.904;9.192;2023-03-01T05:52:39;8.53;;;6.97;;
16731;SDS011;8484;50.904;9.192;2023-03-01T05:55:06;8.80;;;7.13;;
16731;SDS011;8484;50.904;9.192;2023-03-01T05:57:34;8.23;;;6.90;;
16731;SDS011;8484;50.904;9.192;2023-03-01T06:00:01;7.40;;;6.70;;
16731;SDS011;8484;50.904;9.192;2023-03-01T06:02:30;7.90;;;7.10;;
16731;SDS011;8484;50.904;9.192;2023-03-01T06:04:57;8.87;;;6.80;;
16731;SDS011;8484;50.904;9.192;2023-03-01T06:07:25;8.50;;;6.90;;
16731;SDS011;8484;50.904;9.192;2023-03-01T06:09:52;10.17;;;6.87;;
16731;SDS011;8484;50.904;9.192;2023-03-01T06:12:19;6.93;;;6.23;;
16731;SDS011;8484;50.904;9.192;2023-03-01T06:14:45;7.17;;;6.40;;
16731;SDS011;8484;50.904;9.192;2023-03-01T06:17:13;7.27;;;6.57;;
16731;SDS011;8484;50.904;9.192;2023-03-01T06:19:40;9.37;;;6.77;;
16731;SDS011;8484;50.904;9.192;2023-03-01T06:22:07;9.40;;;6.57;;
16731;SDS011;8484;50.904;9.192;2023-03-01T06:24:35;9.10;;;6.80;;
16731;SDS011;8484;50.904;9.192;2023-03-01T06:27:02;9.93;;;6.87;;
16731;SDS011;8484;50.904;9.192;2023-03-01T06:29:29;7.67;;;6.10;;
16731;SDS011;8484;50.904;9.192;2023-03-01T06:31:56;7.30;;;6.60;;
16731;SDS011;8484;50.904;9.192;2023-03-01T06:34:23;8.10;;;6.47;;
16731;SDS011;8484;50.904;9.192;2023-03-01T06:36:50;7.47;;;6.40;;
16731;SDS011;8484;50.904;9.192;2023-03-01T06:39:16;7.23;;;6.40;;
16731;SDS011;8484;50.904;9.192;2023-03-01T06:41:45;6.23;;;5.63;;
16731;SDS011;8484;50.904;9.192;2023-03-01T06:44:11;6.80;;;5.60;;
16731;SDS011;8484;50.904;9.192;2023-03-01T06:46:38;7.70;;;6.20;;
16731;SDS011;8484;50.904;9.192;2023-03-01T06:49:05;7.00;;;5.90;;
16731;SDS011;8484;50.904;9.192;2023-03-01T06:51:34;7.53;;;5.97;;
16731;SDS011;8484;50.904;9.192;2023-03-01T06:54:01;8.30;;;6.63;;
16731;SDS011;8484;50.904;9.192;2023-03-01T06:56:28;11.07;;;6.83;;
16731;SDS011;8484;50.904;9.192;2023-03-01T06:58:57;7.37;;;6.60;;
16731;SDS011;8484;50.904;9.192;2023-03-01T07:01:23;7.10;;;6.40;;
16731;SDS011;8484;50.904;9.192;2023-03-01T07:03:50;6.97;;;6.27;;
16731;SDS011;8484;50.904;9.192;2023-03-01T07:06:17;7.80;;;6.13;;
16731;SDS011;8484;50.904;9.192;2023-03-01T07:08:44;6.50;;;5.83;;
16731;SDS011;8484;50.904;9.192;2023-03-01T07:11:11;6.60;;;5.63;;
16731;SDS011;8484;50.904;9.192;2023-03-01T07:13:39;7.83;;;5.70;;
16731;SDS011;8484;50.904;9.192;2023-03-01T07:16:07;6.67;;;5.10;;
16731;SDS011;8484;50.904;9.192;2023-03-01T07:18:34;6.07;;;5.10;;
16731;SDS011;8484;50.904;9.192;2023-03-01T07:21:03;5.97;;;5.47;;
16731;SDS011;8484;50.904;9.192;2023-03-01T07:23:31;5.83;;;5.30;;
16731;SDS011;8484;50.904;9.192;2023-03-01T07:25:58;5.57;;;4.97;;
16731;SDS011;8484;50.904;9.192;2023-03-01T07:28:25;5.97;;;5.03;;
16731;SDS011;8484;50.904;9.192;2023-03-01T07:30:53;6.77;;;6.17;;
16731;SDS011;8484;50.904;9.192;2023-03-01T07:33:21;9.50;;;6.33;;
16731;SDS011;8484;50.904;9.192;2023-03-01T07:35:48;6.10;;;5.50;;
16731;SDS011;8484;50.904;9.192;2023-03-01T07:38:14;7.10;;;5.20;;
16731;SDS011;8484;50.904;9.192;2023-03-01T07:40:41;6.50;;;5.40;;
16731;SDS011;8484;50.904;9.192;2023-03-01T07:43:08;5.87;;;5.37;;
16731;SDS011;8484;50.904;9.192;2023-03-01T07:45:35;6.50;;;5.53;;
16731;SDS011;8484;50.904;9.192;2023-03-01T07:48:01;6.10;;;5.20;;
16731;SDS011;8484;50.904;9.192;2023-03-01T07:50:30;6.10;;;5.53;;
16731;SDS011;8484;50.904;9.192;2023-03-01T07:52:57;5.80;;;5.30;;
16731;SDS011;8484;50.904;9.192;2023-03-01T07:55:23;6.23;;;5.63;;
16731;SDS011;8484;50.904;9.192;2023-03-01T07:57:50;5.97;;;5.47;;
16731;SDS011;8484;50.904;9.192;2023-03-01T08:00:17;6.13;;;5.50;;
16731;SDS011;8484;50.904;9.192;2023-03-01T08:02:44;5.87;;;5.37;;
16731;SDS011;8484;50.904;9.192;2023-03-01T08:05:11;5.43;;;4.93;;
16731;SDS011;8484;50.904;9.192;2023-03-01T08:07:40;6.17;;;4.80;;
16731;SDS011;8484;50.904;9.192;2023-03-01T08:10:07;5.67;;;5.13;;
16731;SDS011;8484;50.904;9.192;2023-03-01T08:12:34;5.60;;;4.60;;
16731;SDS011;8484;50.904;9.192;2023-03-01T08:15:01;5.37;;;4.77;;
16731;SDS011;8484;50.904;9.192;2023-03-01T08:17:28;5.20;;;4.70;;
16731;SDS011;8484;50.904;9.192;2023-03-01T08:19:55;7.10;;;4.80;;
16731;SDS011;8484;50.904;9.192;2023-03-01T08:22:22;5.37;;;4.87;;
16731;SDS011;8484;50.904;9.192;2023-03-01T08:24:50;5.17;;;4.70;;
16731;SDS011;8484;50.904;9.192;2023-03-01T08:27:17;6.47;;;5.10;;
16731;SDS011;8484;50.904;9.192;2023-03-01T08:29:43;6.17;;;4.90;;
16731;SDS011;8484;50.904;9.192;2023-03-01T08:32:10;5.07;;;4.57;;
16731;SDS011;8484;50.904;9.192;2023-03-01T08:34:37;5.83;;;4.60;;
16731;SDS011;8484;50.904;9.192;2023-03-01T08:37:04;5.20;;;4.70;;
16731;SDS011;8484;50.904;9.192;2023-03-01T08:39:31;4.97;;;4.57;;
16731;SDS011;8484;50.904;9.192;2023-03-01T08:42:04;4.83;;;4.40;;
16731;SDS011;8484;50.904;9.192;2023-03-01T08:44:31;5.37;;;4.97;;
16731;SDS011;8484;50.904;9.192;2023-03-01T08:46:58;5.97;;;5.00;;
16731;SDS011;8484;50.904;9.192;2023-03-01T08:49:25;4.63;;;4.23;;
16731;SDS011;8484;50.904;9.192;2023-03-01T08:51:52;6.37;;;4.43;;
16731;SDS011;8484;50.904;9.192;2023-03-01T08:54:20;4.90;;;4.50;;
16731;SDS011;8484;50.904;9.192;2023-03-01T08:56:47;4.80;;;4.30;;
16731;SDS011;8484;50.904;9.192;2023-03-01T08:59:16;4.90;;;4.40;;
16731;SDS011;8484;50.904;9.192;2023-03-01T09:01:44;7.83;;;4.50;;
16731;SDS011;8484;50.904;9.192;2023-03-01T09:04:11;4.97;;;4.47;;
16731;SDS011;8484;50.904;9.192;2023-03-01T09:06:39;4.90;;;4.40;;
16731;SDS011;8484;50.904;9.192;2023-03-01T09:09:07;4.83;;;4.27;;
16731;SDS011;8484;50.904;9.192;2023-03-01T09:11:41;4.93;;;4.50;;
16731;SDS011;8484;50.904;9.192;2023-03-01T09:14:08;4.70;;;4.30;;
16731;SDS011;8484;50.904;9.192;2023-03-01T09:16:36;4.93;;;4.53;;
16731;SDS011;8484;50.904;9.192;2023-03-01T09:19:03;5.10;;;4.60;;
16731;SDS011;8484;50.904;9.192;2023-03-01T09:21:30;5.93;;;4.93;;
16731;SDS011;8484;50.904;9.192;2023-03-01T09:23:58;5.87;;;5.27;;
16731;SDS011;8484;50.904;9.192;2023-03-01T09:26:25;5.90;;;5.30;;
16731;SDS011;8484;50.904;9.192;2023-03-01T09:28:52;4.63;;;4.10;;
16731;SDS011;8484;50.904;9.192;2023-03-01T09:31:21;5.50;;;4.63;;
16731;SDS011;8484;50.904;9.192;2023-03-01T09:33:51;5.20;;;4.60;;
16731;SDS011;8484;50.904;9.192;2023-03-01T09:36:20;5.80;;;4.63;;
16731;SDS011;8484;50.904;9.192;2023-03-01T09:38:47;5.50;;;5.00;;
16731;SDS011;8484;50.904;9.192;2023-03-01T09:41:19;4.63;;;4.20;;
16731;SDS011;8484;50.904;9.192;2023-03-01T09:43:59;4.83;;;4.30;;
16731;SDS011;8484;50.904;9.192;2023-03-01T09:46:29;4.83;;;4.20;;
16731;SDS011;8484;50.904;9.192;2023-03-01T09:49:02;4.97;;;4.30;;
16731;SDS011;8484;50.904;9.192;2023-03-01T09:51:36;5.47;;;4.50;;
16731;SDS011;8484;50.904;9.192;2023-03-01T09:54:03;5.43;;;4.40;;
16731;SDS011;8484;50.904;9.192;2023-03-01T09:56:33;4.93;;;4.43;;
16731;SDS011;8484;50.904;9.192;2023-03-01T09:59:08;5.07;;;4.40;;
16731;SDS011;8484;50.904;9.192;2023-03-01T10:01:47;5.10;;;4.60;;
16731;SDS011;8484;50.904;9.192;2023-03-01T10:04:26;4.90;;;4.40;;
16731;SDS011;8484;50.904;9.192;2023-03-01T10:07:02;4.70;;;4.30;;
16731;SDS011;8484;50.904;9.192;2023-03-01T10:09:41;4.60;;;4.20;;
16731;SDS011;8484;50.904;9.192;2023-03-01T10:12:10;4.50;;;4.10;;
16731;SDS011;8484;50.904;9.192;2023-03-01T10:14:41;4.83;;;4.20;;
16731;SDS011;8484;50.904;9.192;2023-03-01T10:17:20;4.57;;;4.07;;
16731;SDS011;8484;50.904;9.192;2023-03-01T10:19:55;5.17;;;4.50;;
16731;SDS011;8484;50.904;9.192;2023-03-01T10:22:32;4.70;;;3.97;;
16731;SDS011;8484;50.904;9.192;2023-03-01T10:24:59;4.77;;;4.37;;
16731;SDS011;8484;50.904;9.192;2023-03-01T10:27:33;5.30;;;4.80;;
16731;SDS011;8484;50.904;9.192;2023-03-01T10:30:10;5.07;;;4.57;;
16731;SDS011;8484;50.904;9.192;2023-03-01T10:32:45;4.80;;;4.40;;
16731;SDS011;8484;50.904;9.192;2023-03-01T10:35:19;5.80;;;3.97;;
16731;SDS011;8484;50.904;9.192;2023-03-01T10:37:58;6.67;;;5.23;;
16731;SDS011;8484;50.904;9.192;2023-03-01T10:40:29;7.40;;;6.10;;
16731;SDS011;8484;50.904;9.192;2023-03-01T10:42:57;5.37;;;4.87;;
16731;SDS011;8484;50.904;9.192;2023-03-01T10:45:30;5.67;;;4.60;;
16731;SDS011;8484;50.904;9.192;2023-03-01T10:48:06;4.83;;;4.33;;
16731;SDS011;8484;50.904;9.192;2023-03-01T10:50:40;5.30;;;4.80;;
16731;SDS011;8484;50.904;9.192;2023-03-01T10:53:16;4.60;;;4.20;;
16731;SDS011;8484;50.904;9.192;2023-03-01T10:55:48;5.20;;;4.70;;
16731;SDS011;8484;50.904;9.192;2023-03-01T10:58:23;4.57;;;4.17;;
16731;SDS011;8484;50.904;9.192;2023-03-01T11:00:51;4.67;;;4.17;;
16731;SDS011;8484;50.904;9.192;2023-03-01T11:03:21;4.77;;;4.30;;
16731;SDS011;8484;50.904;9.192;2023-03-01T11:06:01;5.00;;;4.50;;
16731;SDS011;8484;50.904;9.192;2023-03-01T11:08:31;4.70;;;4.30;;
16731;SDS011;8484;50.904;9.192;2023-03-01T11:13:57;4.50;;;4.10;;
16731;SDS011;8484;50.904;9.192;2023-03-01T11:16:27;4.47;;;4.07;;
16731;SDS011;8484;50.904;9.192;2023-03-01T11:18:58;5.33;;;4.57;;
16731;SDS011;8484;50.904;9.192;2023-03-01T11:21:29;4.90;;;4.40;;
16731;SDS011;8484;50.904;9.192;2023-03-01T11:23:59;6.00;;;4.90;;
16731;SDS011;8484;50.904;9.192;2023-03-01T11:26:27;4.93;;;4.50;;
16731;SDS011;8484;50.904;9.192;2023-03-01T11:28:56;5.20;;;4.53;;
16731;SDS011;8484;50.904;9.192;2023-03-01T11:31:29;6.80;;;4.23;;
16731;SDS011;8484;50.904;9.192;2023-03-01T11:33:59;5.10;;;4.23;;
16731;SDS011;8484;50.904;9.192;2023-03-01T11:36:39;4.63;;;4.23;;
16731;SDS011;8484;50.904;9.192;2023-03-01T11:39:15;4.53;;;4.13;;
16731;SDS011;8484;50.904;9.192;2023-03-01T11:41:48;5.27;;;3.97;;
16731;SDS011;8484;50.904;9.192;2023-03-01T11:44:23;4.80;;;4.30;;
16731;SDS011;8484;50.904;9.192;2023-03-01T11:47:00;4.77;;;4.37;;
16731;SDS011;8484;50.904;9.192;2023-03-01T11:49:43;4.57;;;4.17;;
16731;SDS011;8484;50.904;9.192;2023-03-01T11:52:35;5.43;;;4.40;;
16731;SDS011;8484;50.904;9.192;2023-03-01T11:55:19;5.07;;;4.57;;
16731;SDS011;8484;50.904;9.192;2023-03-01T11:57:59;5.07;;;4.57;;
16731;SDS011;8484;50.904;9.192;2023-03-01T12:00:44;5.47;;;4.50;;
16731;SDS011;8484;50.904;9.192;2023-03-01T12:03:28;5.00;;;4.50;;
16731;SDS011;8484;50.904;9.192;2023-03-01T12:09:09;4.90;;;4.50;;
16731;SDS011;8484;50.904;9.192;2023-03-01T12:11:57;5.20;;;4.70;;
16731;SDS011;8484;50.904;9.192;2023-03-01T12:14:44;5.07;;;4.50;;
16731;SDS011;8484;50.904;9.192;2023-03-01T12:17:36;5.07;;;4.57;;
16731;SDS011;8484;50.904;9.192;2023-03-01T12:20:30;5.10;;;4.60;;
16731;SDS011;8484;50.904;9.192;2023-03-01T12:23:16;4.67;;;4.23;;
16731;SDS011;8484;50.904;9.192;2023-03-01T12:25:58;5.23;;;4.67;;
16731;SDS011;8484;50.904;9.192;2023-03-01T12:28:41;5.00;;;4.50;;
16731;SDS011;8484;50.904;9.192;2023-03-01T12:31:35;5.70;;;4.40;;
16731;SDS011;8484;50.904;9.192;2023-03-01T12:34:22;4.90;;;4.40;;
16731;SDS011;8484;50.904;9.192;2023-03-01T12:37:18;5.00;;;4.50;;
16731;SDS011;8484;50.904;9.192;2023-03-01T12:39:54;4.60;;;4.20;;
16731;SDS011;8484;50.904;9.192;2023-03-01T12:42:40;4.83;;;4.33;;
16731;SDS011;8484;50.904;9.192;2023-03-01T12:45:26;4.80;;;4.40;;
16731;SDS011;8484;50.904;9.192;2023-03-01T12:48:23;4.77;;;4.30;;
16731;SDS011;8484;50.904;9.192;2023-03-01T12:50:58;4.97;;;4.53;;
16731;SDS011;8484;50.904;9.192;2023-03-01T12:53:28;5.30;;;4.63;;
16731;SDS011;8484;50.904;9.192;2023-03-01T12:55:58;4.63;;;4.23;;
16731;SDS011;8484;50.904;9.192;2023-03-01T12:58:29;4.80;;;4.30;;
16731;SDS011;8484;50.904;9.192;2023-03-01T13:01:05;5.37;;;4.87;;
16731;SDS011;8484;50.904;9.192;2023-03-01T13:03:55;4.47;;;4.07;;
16731;SDS011;8484;50.904;9.192;2023-03-01T13:06:40;4.50;;;4.10;;
16731;SDS011;8484;50.904;9.192;2023-03-01T13:09:17;5.27;;;4.50;;
16731;SDS011;8484;50.904;9.192;2023-03-01T13:11:49;4.60;;;4.20;;
16731;SDS011;8484;50.904;9.192;2023-03-01T13:19:59;4.43;;;4.03;;
16731;SDS011;8484;50.904;9.192;2023-03-01T13:22:27;4.97;;;3.87;;
16731;SDS011;8484;50.904;9.192;2023-03-01T13:25:01;4.20;;;3.80;;
16731;SDS011;8484;50.904;9.192;2023-03-01T13:27:37;4.20;;;3.80;;
16731;SDS011;8484;50.904;9.192;2023-03-01T13:30:12;4.53;;;4.13;;
16731;SDS011;8484;50.904;9.192;2023-03-01T13:36:08;4.40;;;4.00;;
16731;SDS011;8484;50.904;9.192;2023-03-01T13:38:45;6.20;;;4.67;;
16731;SDS011;8484;50.904;9.192;2023-03-01T13:41:13;4.47;;;4.07;;
16731;SDS011;8484;50.904;9.192;2023-03-01T13:43:42;4.80;;;4.00;;
16731;SDS011;8484;50.904;9.192;2023-03-01T13:46:15;4.17;;;3.80;;
16731;SDS011;8484;50.904;9.192;2023-03-01T13:48:44;4.13;;;3.80;;
16731;SDS011;8484;50.904;9.192;2023-03-01T13:51:15;4.80;;;4.13;;
16731;SDS011;8484;50.904;9.192;2023-03-01T13:53:46;6.40;;;4.13;;
16731;SDS011;8484;50.904;9.192;2023-03-01T13:56:15;4.10;;;3.80;;
16731;SDS011;8484;50.904;9.192;2023-03-01T13:58:46;4.10;;;3.77;;
16731;SDS011;8484;50.904;9.192;2023-03-01T14:01:28;5.53;;;3.80;;
16731;SDS011;8484;50.904;9.192;2023-03-01T14:03:56;4.10;;;3.73;;
16731;SDS011;8484;50.904;9.192;2023-03-01T14:06:24;4.17;;;3.73;;
16731;SDS011;8484;50.904;9.192;2023-03-01T14:09:00;4.67;;;3.87;;
16731;SDS011;8484;50.904;9.192;2023-03-01T14:11:34;4.40;;;4.00;;
16731;SDS011;8484;50.904;9.192;2023-03-01T14:14:33;4.37;;;3.97;;
16731;SDS011;8484;50.904;9.192;2023-03-01T14:17:12;5.93;;;4.10;;
16731;SDS011;8484;50.904;9.192;2023-03-01T14:19:56;4.60;;;4.20;;
16731;SDS011;8484;50.904;9.192;2023-03-01T14:22:25;4.53;;;4.10;;
16731;SDS011;8484;50.904;9.192;2023-03-01T14:24:55;5.10;;;4.30;;
16731;SDS011;8484;50.904;9.192;2023-03-01T14:27:25;4.40;;;4.00;;
16731;SDS011;8484;50.904;9.192;2023-03-01T14:29:54;4.50;;;4.10;;
16731;SDS011;8484;50.904;9.192;2023-03-01T14:32:25;4.50;;;4.10;;
16731;SDS011;8484;50.904;9.192;2023-03-01T14:34:53;5.30;;;4.50;;
16731;SDS011;8484;50.904;9.192;2023-03-01T14:37:21;5.17;;;4.40;;
16731;SDS011;8484;50.904;9.192;2023-03-01T14:39:51;4.20;;;3.80;;
16731;SDS011;8484;50.904;9.192;2023-03-01T14:42:19;5.13;;;4.30;;
16731;SDS011;8484;50.904;9.192;2023-03-01T14:44:47;4.53;;;4.13;;
16731;SDS011;8484;50.904;9.192;2023-03-01T14:47:19;4.87;;;4.13;;
16731;SDS011;8484;50.904;9.192;2023-03-01T14:49:54;4.90;;;4.40;;
16731;SDS011;8484;50.904;9.192;2023-03-01T14:52:25;4.70;;;4.10;;
16731;SDS011;8484;50.904;9.192;2023-03-01T14:55:02;4.37;;;3.97;;
16731;SDS011;8484;50.904;9.192;2023-03-01T14:57:32;4.97;;;4.23;;
16731;SDS011;8484;50.904;9.192;2023-03-01T14:59:59;4.43;;;4.03;;
16731;SDS011;8484;50.904;9.192;2023-03-01T15:02:31;5.30;;;4.20;;
16731;SDS011;8484;50.904;9.192;2023-03-01T15:05:00;4.40;;;4.00;;
16731;SDS011;8484;50.904;9.192;2023-03-01T15:07:32;5.23;;;3.97;;
16731;SDS011;8484;50.904;9.192;2023-03-01T15:10:02;5.00;;;4.00;;
16731;SDS011;8484;50.904;9.192;2023-03-01T15:12:36;4.47;;;4.07;;
16731;SDS011;8484;50.904;9.192;2023-03-01T15:15:21;4.20;;;3.80;;
16731;SDS011;8484;50.904;9.192;2023-03-01T15:17:58;5.30;;;4.07;;
16731;SDS011;8484;50.904;9.192;2023-03-01T15:20:27;4.53;;;4.10;;
16731;SDS011;8484;50.904;9.192;2023-03-01T15:23:00;4.47;;;4.00;;
16731;SDS011;8484;50.904;9.192;2023-03-01T15:25:29;4.43;;;4.13;;
16731;SDS011;8484;50.904;9.192;2023-03-01T15:27:57;5.80;;;4.70;;
16731;SDS011;8484;50.904;9.192;2023-03-01T15:30:26;4.33;;;3.93;;
16731;SDS011;8484;50.904;9.192;2023-03-01T15:36:04;5.00;;;4.60;;
16731;SDS011;8484;50.904;9.192;2023-03-01T15:38:57;4.80;;;4.30;;